sensor_id;sensor_type;location;lat;lon;timestamp;pressure;altitude;pressure_sealevel;temperature;humidity
22688;BME280;11511;51.514;7.080;2022-10-15T00:01:16;100207.31;;;11.11;100.00
22688;BME280;11511;51.514;7.080;2022-10-15T00:03:43;100208.16;;;11.12;100.00
22688;BME280;11511;51.514;7.080;2022-10-15T00:06:15;100199.47;;;11.29;100.00
22688;BME280;11511;51.514;7.080;2022-10-15T00:08:41;100200.59;;;11.04;100.00
22688;BME280;11511;51.514;7.080;2022-10-15T00:11:16;100203.84;;;10.91;100.00
22688;BME280;11511;51.514;7.080;2022-10-15T00:13:42;100193.19;;;10.73;100.00
22688;BME280;11511;51.514;7.080;2022-10-15T00:16:12;100190.25;;;10.61;100.00
22688;BME280;11511;51.514;7.080;2022-10-15T00:18:38;100191.50;;;10.52;100.00
22688;BME280;11511;51.514;7.080;2022-10-15T00:21:06;100191.63;;;10.49;100.00
22688;BME280;11511;51.514;7.080;2022-10-15T00:23:32;100189.72;;;10.32;100.00
22688;BME280;11511;51.514;7.080;2022-10-15T00:26:04;100192.53;;;10.28;100.00
22688;BME280;11511;51.514;7.080;2022-10-15T00:28:31;100184.94;;;10.20;100.00
22688;BME280;11511;51.514;7.080;2022-10-15T00:31:05;100196.72;;;10.11;100.00
22688;BME280;11511;51.514;7.080;2022-10-15T00:33:31;100187.94;;;10.33;100.00
22688;BME280;11511;51.514;7.080;2022-10-15T00:36:20;100191.38;;;10.55;100.00
22688;BME280;11511;51.514;7.080;2022-10-15T00:38:46;100187.63;;;10.61;100.00
22688;BME280;11511;51.514;7.080;2022-10-15T00:41:15;100188.28;;;10.66;100.00
22688;BME280;11511;51.514;7.080;2022-10-15T00:43:45;100179.41;;;10.67;100.00
22688;BME280;11511;51.514;7.080;2022-10-15T00:49:08;100188.72;;;10.75;100.00
22688;BME280;11511;51.514;7.080;2022-10-15T00:51:40;100186.81;;;10.79;100.00
22688;BME280;11511;51.514;7.080;2022-10-15T00:54:08;100192.66;;;10.85;100.00
22688;BME280;11511;51.514;7.080;2022-10-15T00:56:35;100193.38;;;10.89;100.00
22688;BME280;11511;51.514;7.080;2022-10-15T00:59:03;100193.94;;;10.96;100.00
22688;BME280;11511;51.514;7.080;2022-10-15T01:01:29;100189.47;;;10.98;100.00
22688;BME280;11511;51.514;7.080;2022-10-15T01:03:55;100188.06;;;10.91;100.00
22688;BME280;11511;51.514;7.080;2022-10-15T01:06:22;100181.53;;;10.79;100.00
22688;BME280;11511;51.514;7.080;2022-10-15T01:08:50;100187.41;;;10.65;100.00
22688;BME280;11511;51.514;7.080;2022-10-15T01:27:57;100190.22;;;10.40;100.00
22688;BME280;11511;51.514;7.080;2022-10-15T01:31:02;100182.06;;;10.46;100.00
22688;BME280;11511;51.514;7.080;2022-10-15T01:33:41;100180.03;;;10.53;100.00
22688;BME280;11511;51.514;7.080;2022-10-15T01:36:17;100194.31;;;10.68;100.00
22688;BME280;11511;51.514;7.080;2022-10-15T01:38:59;100192.94;;;10.79;100.00
22688;BME280;11511;51.514;7.080;2022-10-15T01:41:36;100194.97;;;10.93;100.00
22688;BME280;11511;51.514;7.080;2022-10-15T01:47:04;100194.00;;;11.14;100.00
22688;BME280;11511;51.514;7.080;2022-10-15T01:49:35;100200.13;;;11.34;100.00
22688;BME280;11511;51.514;7.080;2022-10-15T01:52:07;100203.66;;;11.51;100.00
22688;BME280;11511;51.514;7.080;2022-10-15T01:54:35;100201.22;;;11.48;100.00
22688;BME280;11511;51.514;7.080;2022-10-15T01:57:02;100201.13;;;11.69;100.00
22688;BME280;11511;51.514;7.080;2022-10-15T01:59:30;100194.47;;;11.60;100.00
22688;BME280;11511;51.514;7.080;2022-10-15T02:01:56;100193.34;;;11.66;100.00
22688;BME280;11511;51.514;7.080;2022-10-15T02:04:29;100188.56;;;11.55;100.00
22688;BME280;11511;51.514;7.080;2022-10-15T02:07:05;100185.00;;;11.56;100.00
22688;BME280;11511;51.514;7.080;2022-10-15T02:17:42;100177.38;;;11.50;100.00
22688;BME280;11511;51.514;7.080;2022-10-15T02:20:23;100172.03;;;11.51;100.00
22688;BME280;11511;51.514;7.080;2022-10-15T02:23:03;100171.25;;;11.49;100.00
22688;BME280;11511;51.514;7.080;2022-10-15T02:25:33;100173.59;;;11.56;100.00
22688;BME280;11511;51.514;7.080;2022-10-15T02:28:02;100181.22;;;11.62;100.00
22688;BME280;11511;51.514;7.080;2022-10-15T02:30:30;100174.94;;;11.64;100.00
22688;BME280;11511;51.514;7.080;2022-10-15T02:32:58;100171.38;;;11.65;100.00
22688;BME280;11511;51.514;7.080;2022-10-15T02:35:25;100174.03;;;11.65;100.00
22688;BME280;11511;51.514;7.080;2022-10-15T02:37:53;100169.53;;;11.67;100.00
22688;BME280;11511;51.514;7.080;2022-10-15T02:40:26;100173.53;;;11.76;100.00
22688;BME280;11511;51.514;7.080;2022-10-15T02:42:53;100166.47;;;11.76;100.00
22688;BME280;11511;51.514;7.080;2022-10-15T02:45:20;100175.22;;;11.77;100.00
22688;BME280;11511;51.514;7.080;2022-10-15T02:47:46;100167.09;;;11.81;100.00
22688;BME280;11511;51.514;7.080;2022-10-15T02:50:12;100168.72;;;11.84;100.00
22688;BME280;11511;51.514;7.080;2022-10-15T02:52:39;100176.72;;;11.82;100.00
22688;BME280;11511;51.514;7.080;2022-10-15T02:55:05;100179.28;;;11.84;100.00
22688;BME280;11511;51.514;7.080;2022-10-15T02:57:32;100176.66;;;11.84;100.00
22688;BME280;11511;51.514;7.080;2022-10-15T02:59:59;100179.94;;;11.89;100.00
22688;BME280;11511;51.514;7.080;2022-10-15T03:02:25;100181.63;;;11.90;100.00
22688;BME280;11511;51.514;7.080;2022-10-15T03:04:51;100177.34;;;11.88;100.00
22688;BME280;11511;51.514;7.080;2022-10-15T03:07:17;100166.72;;;11.89;100.00
22688;BME280;11511;51.514;7.080;2022-10-15T03:09:43;100157.88;;;11.90;100.00
22688;BME280;11511;51.514;7.080;2022-10-15T03:12:09;100157.19;;;11.86;100.00
22688;BME280;11511;51.514;7.080;2022-10-15T03:14:35;100170.09;;;11.74;100.00
22688;BME280;11511;51.514;7.080;2022-10-15T03:17:01;100173.88;;;11.68;100.00
22688;BME280;11511;51.514;7.080;2022-10-15T03:19:28;100169.09;;;11.58;100.00
22688;BME280;11511;51.514;7.080;2022-10-15T03:21:55;100170.09;;;11.55;100.00
22688;BME280;11511;51.514;7.080;2022-10-15T03:24:21;100174.38;;;11.58;100.00
22688;BME280;11511;51.514;7.080;2022-10-15T03:26:46;100163.19;;;11.52;100.00
22688;BME280;11511;51.514;7.080;2022-10-15T03:29:12;100166.41;;;11.59;100.00
22688;BME280;11511;51.514;7.080;2022-10-15T03:31:51;100159.84;;;11.49;100.00
22688;BME280;11511;51.514;7.080;2022-10-15T03:34:17;100154.66;;;11.47;100.00
22688;BME280;11511;51.514;7.080;2022-10-15T03:36:44;100155.53;;;11.48;100.00
22688;BME280;11511;51.514;7.080;2022-10-15T03:39:11;100157.38;;;11.46;100.00
22688;BME280;11511;51.514;7.080;2022-10-15T03:41:38;100151.16;;;11.47;100.00
22688;BME280;11511;51.514;7.080;2022-10-15T03:44:05;100148.34;;;11.50;100.00
22688;BME280;11511;51.514;7.080;2022-10-15T03:46:33;100147.69;;;11.46;100.00
22688;BME280;11511;51.514;7.080;2022-10-15T03:48:59;100139.06;;;11.43;100.00
22688;BME280;11511;51.514;7.080;2022-10-15T03:51:25;100130.50;;;11.38;100.00
22688;BME280;11511;51.514;7.080;2022-10-15T03:53:57;100137.63;;;11.36;100.00
22688;BME280;11511;51.514;7.080;2022-10-15T03:56:23;100142.13;;;11.34;100.00
22688;BME280;11511;51.514;7.080;2022-10-15T03:58:49;100131.56;;;11.34;100.00
22688;BME280;11511;51.514;7.080;2022-10-15T04:01:17;100132.44;;;11.34;100.00
22688;BME280;11511;51.514;7.080;2022-10-15T04:03:43;100135.63;;;11.22;100.00
22688;BME280;11511;51.514;7.080;2022-10-15T04:06:09;100133.38;;;11.14;100.00
22688;BME280;11511;51.514;7.080;2022-10-15T04:08:36;100134.56;;;11.07;100.00
22688;BME280;11511;51.514;7.080;2022-10-15T04:11:17;100139.78;;;11.09;100.00
22688;BME280;11511;51.514;7.080;2022-10-15T04:13:47;100156.84;;;11.00;100.00
22688;BME280;11511;51.514;7.080;2022-10-15T04:16:13;100141.03;;;11.00;100.00
22688;BME280;11511;51.514;7.080;2022-10-15T04:18:39;100146.69;;;10.72;100.00
22688;BME280;11511;51.514;7.080;2022-10-15T04:21:05;100161.19;;;10.82;100.00
22688;BME280;11511;51.514;7.080;2022-10-15T04:23:32;100156.28;;;10.94;100.00
22688;BME280;11511;51.514;7.080;2022-10-15T04:26:17;100157.97;;;10.95;100.00
22688;BME280;11511;51.514;7.080;2022-10-15T04:28:43;100158.88;;;11.14;100.00
22688;BME280;11511;51.514;7.080;2022-10-15T04:31:09;100154.25;;;11.19;100.00
22688;BME280;11511;51.514;7.080;2022-10-15T04:33:35;100155.72;;;11.25;100.00
22688;BME280;11511;51.514;7.080;2022-10-15T04:36:05;100161.97;;;11.22;100.00
22688;BME280;11511;51.514;7.080;2022-10-15T04:39:05;100154.78;;;11.26;100.00
22688;BME280;11511;51.514;7.080;2022-10-15T04:41:35;100160.91;;;11.26;100.00
22688;BME280;11511;51.514;7.080;2022-10-15T04:44:08;100164.34;;;11.28;100.00
22688;BME280;11511;51.514;7.080;2022-10-15T04:46:36;100161.72;;;11.28;100.00
22688;BME280;11511;51.514;7.080;2022-10-15T04:49:14;100158.88;;;11.33;100.00
22688;BME280;11511;51.514;7.080;2022-10-15T04:51:40;100157.28;;;11.29;100.00
22688;BME280;11511;51.514;7.080;2022-10-15T04:54:20;100153.16;;;11.23;100.00
22688;BME280;11511;51.514;7.080;2022-10-15T04:57:02;100158.28;;;11.26;100.00
22688;BME280;11511;51.514;7.080;2022-10-15T04:59:30;100160.78;;;11.29;100.00
22688;BME280;11511;51.514;7.080;2022-10-15T05:02:15;100166.19;;;11.26;100.00
22688;BME280;11511;51.514;7.080;2022-10-15T05:04:42;100162.69;;;11.26;100.00
22688;BME280;11511;51.514;7.080;2022-10-15T05:07:08;100157.50;;;11.24;100.00
22688;BME280;11511;51.514;7.080;2022-10-15T05:09:34;100158.50;;;11.22;100.00
22688;BME280;11511;51.514;7.080;2022-10-15T05:12:00;100157.81;;;11.18;100.00
22688;BME280;11511;51.514;7.080;2022-10-15T05:14:26;100149.03;;;11.17;100.00
22688;BME280;11511;51.514;7.080;2022-10-15T05:17:12;100149.66;;;11.23;100.00
22688;BME280;11511;51.514;7.080;2022-10-15T05:19:41;100147.03;;;11.23;100.00
22688;BME280;11511;51.514;7.080;2022-10-15T05:22:13;100137.41;;;11.22;100.00
22688;BME280;11511;51.514;7.080;2022-10-15T05:24:46;100147.81;;;11.25;100.00
22688;BME280;11511;51.514;7.080;2022-10-15T05:27:23;100142.06;;;11.16;100.00
22688;BME280;11511;51.514;7.080;2022-10-15T05:29:49;100147.47;;;11.13;100.00
22688;BME280;11511;51.514;7.080;2022-10-15T05:32:15;100144.84;;;11.13;100.00
22688;BME280;11511;51.514;7.080;2022-10-15T05:34:40;100141.91;;;11.01;100.00
22688;BME280;11511;51.514;7.080;2022-10-15T05:37:11;100139.25;;;11.01;100.00
22688;BME280;11511;51.514;7.080;2022-10-15T05:39:40;100131.41;;;10.99;100.00
22688;BME280;11511;51.514;7.080;2022-10-15T05:42:08;100134.44;;;10.92;100.00
22688;BME280;11511;51.514;7.080;2022-10-15T05:44:39;100142.59;;;10.85;100.00
22688;BME280;11511;51.514;7.080;2022-10-15T05:47:05;100150.56;;;10.84;100.00
22688;BME280;11511;51.514;7.080;2022-10-15T05:49:36;100143.25;;;10.91;100.00
22688;BME280;11511;51.514;7.080;2022-10-15T05:52:08;100149.66;;;11.04;100.00
22688;BME280;11511;51.514;7.080;2022-10-15T05:54:52;100147.88;;;11.04;100.00
22688;BME280;11511;51.514;7.080;2022-10-15T05:57:18;100154.59;;;11.11;100.00
22688;BME280;11511;51.514;7.080;2022-10-15T05:59:44;100151.75;;;11.16;100.00
22688;BME280;11511;51.514;7.080;2022-10-15T06:02:09;100160.38;;;11.19;100.00
22688;BME280;11511;51.514;7.080;2022-10-15T06:04:41;100163.63;;;11.25;100.00
22688;BME280;11511;51.514;7.080;2022-10-15T06:07:07;100166.06;;;11.29;100.00
22688;BME280;11511;51.514;7.080;2022-10-15T06:09:33;100160.50;;;11.35;100.00
22688;BME280;11511;51.514;7.080;2022-10-15T06:11:59;100154.44;;;11.33;100.00
22688;BME280;11511;51.514;7.080;2022-10-15T06:14:24;100161.34;;;11.36;100.00
22688;BME280;11511;51.514;7.080;2022-10-15T06:16:51;100169.06;;;11.40;100.00
22688;BME280;11511;51.514;7.080;2022-10-15T06:19:19;100170.38;;;11.49;100.00
22688;BME280;11511;51.514;7.080;2022-10-15T06:21:45;100173.72;;;11.52;100.00
22688;BME280;11511;51.514;7.080;2022-10-15T06:24:11;100171.34;;;11.48;100.00
22688;BME280;11511;51.514;7.080;2022-10-15T06:26:36;100170.56;;;11.46;100.00
22688;BME280;11511;51.514;7.080;2022-10-15T06:29:02;100167.34;;;11.39;100.00
22688;BME280;11511;51.514;7.080;2022-10-15T06:31:28;100177.75;;;11.42;100.00
22688;BME280;11511;51.514;7.080;2022-10-15T06:33:53;100167.41;;;11.38;100.00
22688;BME280;11511;51.514;7.080;2022-10-15T06:36:19;100174.69;;;11.33;100.00
22688;BME280;11511;51.514;7.080;2022-10-15T06:38:46;100186.00;;;11.35;100.00
22688;BME280;11511;51.514;7.080;2022-10-15T06:41:12;100181.38;;;11.40;100.00
22688;BME280;11511;51.514;7.080;2022-10-15T06:43:37;100192.34;;;11.49;100.00
22688;BME280;11511;51.514;7.080;2022-10-15T06:46:04;100178.09;;;11.53;100.00
22688;BME280;11511;51.514;7.080;2022-10-15T06:48:31;100191.56;;;11.66;100.00
22688;BME280;11511;51.514;7.080;2022-10-15T06:50:59;100190.69;;;11.84;100.00
22688;BME280;11511;51.514;7.080;2022-10-15T06:53:25;100188.84;;;11.86;100.00
22688;BME280;11511;51.514;7.080;2022-10-15T06:55:55;100190.41;;;11.91;100.00
22688;BME280;11511;51.514;7.080;2022-10-15T06:58:22;100189.47;;;11.92;100.00
22688;BME280;11511;51.514;7.080;2022-10-15T07:00:47;100190.13;;;11.97;100.00
22688;BME280;11511;51.514;7.080;2022-10-15T07:03:13;100192.47;;;12.03;100.00
22688;BME280;11511;51.514;7.080;2022-10-15T07:05:39;100194.94;;;12.06;100.00
22688;BME280;11511;51.514;7.080;2022-10-15T07:08:05;100198.19;;;12.11;100.00
22688;BME280;11511;51.514;7.080;2022-10-15T07:10:30;100193.69;;;12.13;100.00
22688;BME280;11511;51.514;7.080;2022-10-15T07:13:01;100198.47;;;12.24;100.00
22688;BME280;11511;51.514;7.080;2022-10-15T07:15:28;100192.03;;;12.29;100.00
22688;BME280;11511;51.514;7.080;2022-10-15T07:17:55;100193.63;;;12.32;100.00
22688;BME280;11511;51.514;7.080;2022-10-15T07:20:30;100191.31;;;12.43;100.00
22688;BME280;11511;51.514;7.080;2022-10-15T07:23:00;100190.97;;;12.32;100.00
22688;BME280;11511;51.514;7.080;2022-10-15T07:25:29;100199.69;;;12.16;100.00
22688;BME280;11511;51.514;7.080;2022-10-15T07:27:56;100201.00;;;12.08;100.00
22688;BME280;11511;51.514;7.080;2022-10-15T07:30:23;100203.97;;;12.19;100.00
22688;BME280;11511;51.514;7.080;2022-10-15T07:32:52;100209.31;;;12.17;100.00
22688;BME280;11511;51.514;7.080;2022-10-15T07:35:17;100203.97;;;12.19;100.00
22688;BME280;11511;51.514;7.080;2022-10-15T07:37:43;100204.13;;;12.16;100.00
22688;BME280;11511;51.514;7.080;2022-10-15T07:40:09;100199.25;;;12.26;100.00
22688;BME280;11511;51.514;7.080;2022-10-15T07:42:35;100194.72;;;12.45;100.00
22688;BME280;11511;51.514;7.080;2022-10-15T07:45:01;100203.03;;;12.72;100.00
22688;BME280;11511;51.514;7.080;2022-10-15T07:47:27;100203.53;;;12.96;100.00
22688;BME280;11511;51.514;7.080;2022-10-15T07:49:53;100203.22;;;13.02;100.00
22688;BME280;11511;51.514;7.080;2022-10-15T07:52:19;100207.50;;;13.04;100.00
22688;BME280;11511;51.514;7.080;2022-10-15T07:54:44;100209.28;;;13.04;100.00
22688;BME280;11511;51.514;7.080;2022-10-15T07:57:13;100207.31;;;13.25;100.00
22688;BME280;11511;51.514;7.080;2022-10-15T07:59:38;100193.66;;;13.48;100.00
22688;BME280;11511;51.514;7.080;2022-10-15T08:02:04;100186.94;;;13.58;100.00
22688;BME280;11511;51.514;7.080;2022-10-15T08:04:29;100180.53;;;13.62;100.00
22688;BME280;11511;51.514;7.080;2022-10-15T08:06:55;100187.94;;;13.71;100.00
22688;BME280;11511;51.514;7.080;2022-10-15T08:09:21;100175.75;;;13.69;100.00
22688;BME280;11511;51.514;7.080;2022-10-15T08:11:47;100172.53;;;13.64;100.00
22688;BME280;11511;51.514;7.080;2022-10-15T08:14:16;100175.56;;;13.72;100.00
22688;BME280;11511;51.514;7.080;2022-10-15T08:16:42;100165.41;;;13.80;100.00
22688;BME280;11511;51.514;7.080;2022-10-15T08:19:08;100160.38;;;13.91;100.00
22688;BME280;11511;51.514;7.080;2022-10-15T08:21:33;100159.50;;;13.91;100.00
22688;BME280;11511;51.514;7.080;2022-10-15T08:23:59;100158.41;;;13.95;100.00
22688;BME280;11511;51.514;7.080;2022-10-15T08:26:32;100159.16;;;14.42;100.00
22688;BME280;11511;51.514;7.080;2022-10-15T08:28:58;100156.91;;;14.79;100.00
22688;BME280;11511;51.514;7.080;2022-10-15T08:31:23;100162.91;;;14.97;100.00
22688;BME280;11511;51.514;7.080;2022-10-15T08:33:49;100167.34;;;14.96;100.00
22688;BME280;11511;51.514;7.080;2022-10-15T08:36:15;100177.88;;;14.98;100.00
22688;BME280;11511;51.514;7.080;2022-10-15T08:38:43;100172.97;;;15.61;100.00
22688;BME280;11511;51.514;7.080;2022-10-15T08:41:31;100175.16;;;15.54;100.00
22688;BME280;11511;51.514;7.080;2022-10-15T08:44:00;100169.97;;;15.39;100.00
22688;BME280;11511;51.514;7.080;2022-10-15T08:46:36;100161.34;;;15.35;100.00
22688;BME280;11511;51.514;7.080;2022-10-15T08:49:04;100171.72;;;15.67;100.00
22688;BME280;11511;51.514;7.080;2022-10-15T08:51:39;100168.31;;;15.79;100.00
22688;BME280;11511;51.514;7.080;2022-10-15T08:54:09;100171.97;;;16.30;100.00
22688;BME280;11511;51.514;7.080;2022-10-15T08:56:42;100158.16;;;16.50;100.00
22688;BME280;11511;51.514;7.080;2022-10-15T08:59:29;100151.63;;;16.69;100.00
22688;BME280;11511;51.514;7.080;2022-10-15T09:02:02;100158.28;;;17.25;100.00
22688;BME280;11511;51.514;7.080;2022-10-15T09:04:54;100159.69;;;17.67;100.00
22688;BME280;11511;51.514;7.080;2022-10-15T09:07:38;100162.72;;;17.50;100.00
22688;BME280;11511;51.514;7.080;2022-10-15T09:10:15;100152.00;;;17.99;99.30
22688;BME280;11511;51.514;7.080;2022-10-15T09:13:08;100151.41;;;17.83;99.12
22688;BME280;11511;51.514;7.080;2022-10-15T09:15:36;100153.06;;;17.60;100.00
22688;BME280;11511;51.514;7.080;2022-10-15T09:18:17;100157.31;;;17.39;100.00
22688;BME280;11511;51.514;7.080;2022-10-15T09:20:46;100156.72;;;17.22;100.00
22688;BME280;11511;51.514;7.080;2022-10-15T09:23:20;100152.41;;;17.45;100.00
22688;BME280;11511;51.514;7.080;2022-10-15T09:26:06;100144.47;;;17.69;99.35
22688;BME280;11511;51.514;7.080;2022-10-15T09:28:42;100130.56;;;18.82;92.26
22688;BME280;11511;51.514;7.080;2022-10-15T09:31:13;100123.13;;;19.30;87.12
22688;BME280;11511;51.514;7.080;2022-10-15T09:33:50;100086.19;;;20.21;82.05
22688;BME280;11511;51.514;7.080;2022-10-15T09:36:35;100081.06;;;22.85;67.41
22688;BME280;11511;51.514;7.080;2022-10-15T09:42:05;100116.75;;;25.34;54.58
22688;BME280;11511;51.514;7.080;2022-10-15T09:44:41;100130.34;;;25.24;53.04
22688;BME280;11511;51.514;7.080;2022-10-15T09:47:31;100131.53;;;21.75;64.12
22688;BME280;11511;51.514;7.080;2022-10-15T09:50:06;100118.34;;;24.85;55.40
22688;BME280;11511;51.514;7.080;2022-10-15T09:52:54;100126.69;;;24.48;53.53
22688;BME280;11511;51.514;7.080;2022-10-15T09:55:34;100121.53;;;23.83;57.84
22688;BME280;11511;51.514;7.080;2022-10-15T09:58:05;100133.59;;;22.12;60.00
22688;BME280;11511;51.514;7.080;2022-10-15T10:01:02;100129.59;;;22.16;62.38
22688;BME280;11511;51.514;7.080;2022-10-15T10:03:35;100132.19;;;19.72;74.07
22688;BME280;11511;51.514;7.080;2022-10-15T10:06:10;100125.22;;;19.92;74.63
22688;BME280;11511;51.514;7.080;2022-10-15T10:08:57;100125.53;;;19.44;76.67
22688;BME280;11511;51.514;7.080;2022-10-15T10:11:25;100114.63;;;18.58;82.32
22688;BME280;11511;51.514;7.080;2022-10-15T10:13:54;100111.41;;;18.31;84.57
22688;BME280;11511;51.514;7.080;2022-10-15T10:16:21;100100.94;;;18.16;85.32
22688;BME280;11511;51.514;7.080;2022-10-15T10:19:20;100100.19;;;18.14;87.56
22688;BME280;11511;51.514;7.080;2022-10-15T10:21:46;100100.34;;;19.04;81.58
22688;BME280;11511;51.514;7.080;2022-10-15T10:24:29;100101.03;;;18.50;85.15
22688;BME280;11511;51.514;7.080;2022-10-15T10:26:57;100094.53;;;18.19;89.76
22688;BME280;11511;51.514;7.080;2022-10-15T10:29:25;100077.19;;;18.59;87.70
22688;BME280;11511;51.514;7.080;2022-10-15T10:31:51;100092.63;;;18.43;87.13
22688;BME280;11511;51.514;7.080;2022-10-15T10:34:31;100093.84;;;18.39;87.78
22688;BME280;11511;51.514;7.080;2022-10-15T10:37:01;100092.50;;;18.45;88.54
22688;BME280;11511;51.514;7.080;2022-10-15T10:39:29;100095.59;;;17.81;92.45
22688;BME280;11511;51.514;7.080;2022-10-15T10:41:57;100073.31;;;17.82;93.50
22688;BME280;11511;51.514;7.080;2022-10-15T10:44:39;100076.66;;;18.54;92.32
22688;BME280;11511;51.514;7.080;2022-10-15T10:47:14;100070.75;;;17.81;94.18
22688;BME280;11511;51.514;7.080;2022-10-15T10:49:43;100074.75;;;17.75;95.74
22688;BME280;11511;51.514;7.080;2022-10-15T10:52:25;100072.91;;;18.11;95.83
22688;BME280;11511;51.514;7.080;2022-10-15T10:55:19;100066.69;;;17.40;100.00
22688;BME280;11511;51.514;7.080;2022-10-15T10:57:57;100062.44;;;17.01;100.00
22688;BME280;11511;51.514;7.080;2022-10-15T11:02:59;100071.13;;;16.67;100.00
22688;BME280;11511;51.514;7.080;2022-10-15T11:05:27;100072.25;;;16.24;100.00
22688;BME280;11511;51.514;7.080;2022-10-15T11:07:59;100082.44;;;16.05;100.00
22688;BME280;11511;51.514;7.080;2022-10-15T11:10:47;100081.69;;;16.03;100.00
22688;BME280;11511;51.514;7.080;2022-10-15T11:13:29;100067.88;;;16.11;100.00
22688;BME280;11511;51.514;7.080;2022-10-15T11:16:03;100078.16;;;16.15;100.00
22688;BME280;11511;51.514;7.080;2022-10-15T11:18:49;100067.78;;;16.25;100.00
22688;BME280;11511;51.514;7.080;2022-10-15T11:27:14;100060.56;;;16.78;100.00
22688;BME280;11511;51.514;7.080;2022-10-15T11:38:18;100045.97;;;16.83;100.00
22688;BME280;11511;51.514;7.080;2022-10-15T11:43:39;100045.13;;;16.70;100.00
22688;BME280;11511;51.514;7.080;2022-10-15T11:46:16;100043.13;;;16.48;100.00
22688;BME280;11511;51.514;7.080;2022-10-15T11:51:25;100031.53;;;16.62;100.00
22688;BME280;11511;51.514;7.080;2022-10-15T11:56:41;100028.69;;;16.65;100.00
22688;BME280;11511;51.514;7.080;2022-10-15T12:04:10;100028.13;;;16.60;100.00
22688;BME280;11511;51.514;7.080;2022-10-15T12:06:44;100025.66;;;16.82;100.00
22688;BME280;11511;51.514;7.080;2022-10-15T12:09:15;100029.91;;;16.72;100.00
22688;BME280;11511;51.514;7.080;2022-10-15T12:14:39;100022.28;;;16.55;100.00
22688;BME280;11511;51.514;7.080;2022-10-15T12:17:28;100013.00;;;16.73;100.00
22688;BME280;11511;51.514;7.080;2022-10-15T12:20:11;100014.19;;;17.06;100.00
22688;BME280;11511;51.514;7.080;2022-10-15T12:23:01;100012.34;;;17.19;100.00
22688;BME280;11511;51.514;7.080;2022-10-15T12:28:01;100011.25;;;16.98;100.00
22688;BME280;11511;51.514;7.080;2022-10-15T12:30:31;100006.56;;;16.65;100.00
22688;BME280;11511;51.514;7.080;2022-10-15T12:33:00;100006.09;;;16.45;100.00
22688;BME280;11511;51.514;7.080;2022-10-15T12:35:37;99998.25;;;16.44;100.00
22688;BME280;11511;51.514;7.080;2022-10-15T12:38:17;99997.22;;;16.34;100.00
22688;BME280;11511;51.514;7.080;2022-10-15T12:40:45;99997.81;;;16.50;100.00
22688;BME280;11511;51.514;7.080;2022-10-15T12:43:16;99993.13;;;16.53;100.00
22688;BME280;11511;51.514;7.080;2022-10-15T12:45:54;99984.09;;;16.56;100.00
22688;BME280;11511;51.514;7.080;2022-10-15T12:48:28;99992.19;;;16.54;100.00
22688;BME280;11511;51.514;7.080;2022-10-15T12:53:52;99990.25;;;16.56;100.00
22688;BME280;11511;51.514;7.080;2022-10-15T12:56:33;99992.16;;;16.80;100.00
22688;BME280;11511;51.514;7.080;2022-10-15T12:58:59;99979.25;;;17.23;100.00
22688;BME280;11511;51.514;7.080;2022-10-15T13:01:49;99979.22;;;17.47;100.00
22688;BME280;11511;51.514;7.080;2022-10-15T13:04:16;99975.59;;;17.48;100.00
22688;BME280;11511;51.514;7.080;2022-10-15T13:06:42;99973.28;;;17.54;100.00
22688;BME280;11511;51.514;7.080;2022-10-15T13:11:41;99986.06;;;17.38;100.00
22688;BME280;11511;51.514;7.080;2022-10-15T13:16:43;99991.06;;;17.19;100.00
22688;BME280;11511;51.514;7.080;2022-10-15T13:19:20;99986.19;;;17.37;100.00
22688;BME280;11511;51.514;7.080;2022-10-15T13:21:54;99989.75;;;17.72;100.00
22688;BME280;11511;51.514;7.080;2022-10-15T13:24:22;99986.97;;;17.50;100.00
22688;BME280;11511;51.514;7.080;2022-10-15T13:26:48;99991.84;;;17.32;100.00
22688;BME280;11511;51.514;7.080;2022-10-15T13:29:18;99984.03;;;17.66;100.00
22688;BME280;11511;51.514;7.080;2022-10-15T13:31:44;99983.78;;;18.26;100.00
22688;BME280;11511;51.514;7.080;2022-10-15T13:34:26;99985.22;;;18.19;100.00
22688;BME280;11511;51.514;7.080;2022-10-15T13:36:54;99989.69;;;17.96;100.00
22688;BME280;11511;51.514;7.080;2022-10-15T13:42:06;99991.56;;;18.51;100.00
22688;BME280;11511;51.514;7.080;2022-10-15T13:44:33;99977.56;;;19.04;100.00
22688;BME280;11511;51.514;7.080;2022-10-15T13:46:59;99976.84;;;19.02;100.00
22688;BME280;11511;51.514;7.080;2022-10-15T13:49:24;99976.16;;;19.20;100.00
22688;BME280;11511;51.514;7.080;2022-10-15T13:51:52;99977.28;;;19.50;100.00
22688;BME280;11511;51.514;7.080;2022-10-15T13:54:20;99977.91;;;19.74;100.00
22688;BME280;11511;51.514;7.080;2022-10-15T13:56:54;99980.19;;;19.47;100.00
22688;BME280;11511;51.514;7.080;2022-10-15T13:59:24;99980.31;;;19.56;100.00
22688;BME280;11511;51.514;7.080;2022-10-15T14:01:53;99983.00;;;19.56;100.00
22688;BME280;11511;51.514;7.080;2022-10-15T14:04:27;99980.97;;;19.06;100.00
22688;BME280;11511;51.514;7.080;2022-10-15T14:06:55;99981.63;;;18.87;100.00
22688;BME280;11511;51.514;7.080;2022-10-15T14:09:31;99982.66;;;19.07;100.00
22688;BME280;11511;51.514;7.080;2022-10-15T14:11:58;99959.44;;;19.18;100.00
22688;BME280;11511;51.514;7.080;2022-10-15T14:14:35;99968.28;;;19.19;100.00
22688;BME280;11511;51.514;7.080;2022-10-15T14:17:06;99968.34;;;18.97;100.00
22688;BME280;11511;51.514;7.080;2022-10-15T14:19:36;99974.91;;;18.92;100.00
22688;BME280;11511;51.514;7.080;2022-10-15T14:22:03;99972.88;;;18.85;100.00